Impacts METAR Board
IDs:

KDFW - Dallas-Ft Worth Intl, TX, US

Updated at: 2000 UTC 08 Feb 2023
Potential Impact None Slight Moderate High
Time 08/08Z 08/09Z 08/10Z 08/11Z 08/12Z 08/13Z 08/14Z 08/15Z 08/16Z 08/17Z 08/18Z 08/19Z 08/20Z
Temp47 47 46 46 46 46 47 47 47 46 45 46 46
Dewpt45 45 44 44 44 45 45 45 45 43 42 43 42
Altim30.02 30.00 29.97 29.98 29.97 29.95 29.98 29.98 29.99 29.99 30.02 29.99 29.96
VIS10 10 10 1.75 10 7 10 1.25 1.25 10 6 10 10
CIG6 7 6 6 6 5 6 17 9 9 10 9 10
CoverOVCOVCOVCOVCOVCOVCOVCOVCOVCOVCOVCOVCOVC
FltCatIFRIFRIFRIFRIFRIFRIFRIFRIFRIFRMVFRIFRMVFR
WX---RA--+TSRA BR-TSRA-RAVCTS -RA-TSRA BRTSRA BR-RARA BR-RA-RA
WDir330320340300310310290300270300260270280
WSpd9 12 11 6 8 8 7 8 9 15 11 13 13
WGst-- -- -- -- -- -- -- -- -- -- -- -- --
Raw hourly METARs
KDFW 080753Z 33009KT 10SM OVC006 08/07 A3002 RMK AO2 RAE47 TSE37 SLP164 OCNL LTGIC DSNT NE TS MOVD NE CB DSNT NE MOV NE P0005 T00830072
KDFW 080853Z 32012KT 10SM -RA OVC007 08/07 A3000 RMK AO2 RAB10E31B50 TSE21B23E49 SLP158 OCNL LTGIC DSNT NE-E TS MOVD NE CB DSNT NE-E MOV NE P0000 60059 T00830072 56020
KDFW 080953Z 34011KT 10SM OVC006 08/07 A2997 RMK AO2 LTG DSNT W AND NW RAE38 SLP147 P0000 T00780067
KDFW 081055Z 30006KT 1 3/4SM R17C/4500VP6000FT +TSRA BR OVC006CB 08/07 A2998 RMK AO2 LTG DSNT NE AND SW AND W FRQ LTGICCG ALQDS TS ALQDS MOV NE P0003 T00780067
KDFW 081153Z 31008KT 10SM -TSRA BKN006 OVC015CB 08/07 A2997 RMK AO2 LTG DSNT W-NE SLP146 FRQ LTGICCG W-N TS W-N MOV NE P0024 60087 70186 T00780067 10094 20072 56012
KDFW 081253Z 31008KT 7SM -RA OVC005 08/07 A2995 RMK AO2 LTG DSNT N RAE03B47 TSE12 SLP140 P0001 T00780072
KDFW 081353Z 29007KT 10SM VCTS -RA OVC006 08/07 A2998 RMK AO2 LTG DSNT SW-N TSE50 SLP150 P0001 T00830072
KDFW 081453Z 30008KT 1 1/4SM -TSRA BR FEW008 SCT011CB OVC017 08/07 A2998 RMK AO2 SFC VIS 3 LTG DSNT N AND NE AND SW TSB18 SLP150 OCNL LTGIC SW-NW TS SW-NW MOV NE P0014 60016 T00830072 53004
KDFW 081605Z COR 27009KT 1 1/4SM TSRA BR SCT006 BKN009CB OVC016 08/07 A2999 RMK AO2 SFC VIS 4 OCNL LTGIC ALQDS TS ALQDS MOV NE P0003 T00830072 $
KDFW 081703Z 30015KT 10SM -RA OVC009 08/06 A2999 RMK AO2 LTG DSNT SW AND W P0000 T00780061 $
KDFW 081802Z 26011KT 6SM RA BR BKN010 BKN022 OVC033 07/06 A3002 RMK AO2 P0001 T00720056 $
KDFW 081853Z 27013KT 10SM -RA BKN009 OVC013 08/06 A2999 RMK AO2 SLP152 P0006 T00780061 $
KDFW 081953Z 28013KT 10SM -RA BKN010 OVC014 08/06 A2996 RMK AO2 RAE01B52 SLP143 P0000 T00780056 $



Page loaded:  20:10 UTC  |   12:10 PM Pacific  |   01:10 PM Mountain  |   02:10 PM Central  |   03:10 PM Eastern

 

ADVISORIES

FORECASTS

FORECASTS

OBSERVATIONS

USER TOOLS

ABOUT US